createdAt,value
2023-04-11T00:02:09.831Z,88.20
2023-04-11T00:04:39.354Z,88.54
2023-04-11T00:07:07.883Z,88.83
2023-04-11T00:09:35.107Z,88.08
2023-04-11T00:12:02.356Z,88.17
2023-04-11T00:14:32.550Z,88.69
2023-04-11T00:17:01.305Z,88.48
2023-04-11T00:19:28.796Z,88.84
2023-04-11T00:22:00.802Z,89.23
2023-04-11T00:24:27.943Z,89.41
2023-04-11T00:26:54.865Z,89.62
2023-04-11T00:29:21.842Z,89.43
2023-04-11T00:31:48.937Z,89.29
2023-04-11T00:34:15.964Z,89.01
2023-04-11T00:36:43.004Z,88.44
2023-04-11T00:39:10.230Z,88.92
2023-04-11T00:41:37.210Z,88.66
2023-04-11T00:44:04.290Z,89.28
2023-04-11T00:46:31.341Z,89.21
2023-04-11T00:48:58.640Z,89.42
2023-04-11T00:51:26.292Z,89.66
2023-04-11T00:53:53.612Z,89.21
2023-04-11T00:56:21.187Z,89.22
2023-04-11T00:58:48.529Z,89.94
2023-04-11T01:01:17.013Z,89.79
2023-04-11T01:03:45.684Z,90.53
2023-04-11T01:06:15.668Z,90.11
2023-04-11T01:08:43.815Z,90.51
2023-04-11T01:11:12.914Z,90.74
2023-04-11T01:13:41.738Z,89.96
2023-04-11T01:16:10.733Z,89.96
2023-04-11T01:18:37.917Z,90.45
2023-04-11T01:21:05.137Z,89.93
2023-04-11T01:23:32.083Z,89.92
2023-04-11T01:25:59.134Z,90.04
2023-04-11T01:28:26.207Z,89.40
2023-04-11T01:30:53.207Z,89.08
2023-04-11T01:33:20.189Z,89.71
2023-04-11T01:35:47.186Z,89.61
2023-04-11T01:38:14.546Z,89.34
2023-04-11T01:40:43.033Z,89.70
2023-04-11T01:43:10.353Z,89.52
2023-04-11T01:45:37.835Z,90.24
2023-04-11T01:48:08.771Z,90.07
2023-04-11T01:50:36.102Z,90.40
2023-04-11T01:53:04.572Z,90.51
2023-04-11T01:55:31.688Z,90.45
2023-04-11T01:57:58.664Z,90.26
2023-04-11T02:00:25.709Z,90.30
2023-04-11T02:02:52.897Z,90.29
2023-04-11T02:05:20.770Z,90.02
2023-04-11T02:07:47.939Z,90.64
2023-04-11T02:10:14.802Z,89.95
2023-04-11T02:12:41.751Z,89.47
2023-04-11T02:15:09.109Z,89.45
2023-04-11T02:17:37.156Z,89.15
2023-04-11T02:20:07.331Z,88.79
2023-04-11T02:22:34.282Z,88.63
2023-04-11T02:25:01.045Z,88.16
2023-04-11T02:27:27.931Z,88.27
2023-04-11T02:29:54.883Z,88.75
2023-04-11T02:32:22.093Z,88.37
2023-04-11T02:34:49.253Z,88.50
2023-04-11T02:37:16.075Z,87.98
2023-04-11T02:39:43.130Z,88.17
2023-04-11T02:42:10.062Z,88.18
2023-04-11T02:44:36.910Z,87.28
2023-04-11T02:47:03.951Z,87.25
2023-04-11T02:49:31.104Z,87.24
2023-04-11T02:51:58.061Z,86.79
2023-04-11T02:54:25.321Z,84.97
2023-04-11T02:56:52.977Z,83.70
2023-04-11T02:59:19.897Z,83.02
2023-04-11T03:01:46.902Z,83.41
2023-04-11T03:04:13.899Z,83.11
2023-04-11T03:06:40.934Z,82.97
2023-04-11T03:09:11.030Z,83.18
2023-04-11T03:11:38.111Z,82.68
2023-04-11T03:14:04.944Z,82.18
2023-04-11T03:16:33.212Z,82.38
2023-04-11T03:19:00.160Z,82.68
2023-04-11T03:21:27.944Z,83.94
2023-04-11T03:23:55.107Z,84.79
2023-04-11T03:26:22.107Z,85.57
2023-04-11T03:28:49.009Z,85.45
2023-04-11T03:31:16.019Z,85.31
2023-04-11T03:33:42.931Z,85.33
2023-04-11T03:36:10.021Z,85.39
2023-04-11T03:38:36.934Z,85.96
2023-04-11T03:41:04.142Z,85.54
2023-04-11T03:43:31.017Z,85.54
2023-04-11T03:45:58.046Z,85.36
2023-04-11T03:48:29.997Z,84.69
2023-04-11T03:50:59.472Z,84.16
2023-04-11T03:53:26.459Z,84.21
2023-04-11T03:55:54.525Z,85.00
2023-04-11T03:58:21.736Z,84.51
2023-04-11T04:00:48.815Z,84.33
2023-04-11T04:03:15.761Z,84.55
2023-04-11T04:05:42.840Z,84.33
2023-04-11T04:08:09.723Z,84.23
2023-04-11T04:10:36.779Z,84.20
2023-04-11T04:13:03.632Z,84.21
2023-04-11T04:15:30.913Z,84.18
2023-04-11T04:17:57.776Z,84.15
2023-04-11T04:20:24.988Z,84.14
2023-04-11T04:22:53.379Z,84.92
2023-04-11T04:25:20.422Z,84.74
2023-04-11T04:27:54.342Z,84.82
2023-04-11T04:30:22.265Z,84.95
2023-04-11T04:32:55.038Z,84.57
2023-04-11T04:35:22.155Z,84.56
2023-04-11T04:37:50.155Z,84.80
2023-04-11T04:40:20.731Z,84.54
2023-04-11T04:42:58.551Z,84.85
2023-04-11T04:45:26.690Z,83.97
2023-04-11T04:47:53.604Z,83.58
2023-04-11T04:50:20.898Z,83.30
2023-04-11T04:52:47.778Z,83.34
2023-04-11T04:55:14.876Z,83.78
2023-04-11T04:57:42.977Z,84.32
2023-04-11T05:00:11.868Z,83.45
2023-04-11T05:02:40.994Z,83.33
2023-04-11T05:05:08.406Z,83.56
2023-04-11T05:07:35.786Z,83.47
2023-04-11T05:10:02.821Z,83.27
2023-04-11T05:12:31.267Z,83.82
2023-04-11T05:14:58.413Z,84.41
2023-04-11T05:17:26.472Z,83.46
2023-04-11T05:19:53.311Z,82.90
2023-04-11T05:22:20.110Z,82.94
2023-04-11T05:24:47.163Z,82.75
2023-04-11T05:27:13.968Z,82.17
2023-04-11T05:29:41.144Z,81.68
2023-04-11T05:32:08.001Z,81.54
2023-04-11T05:34:51.629Z,81.23
2023-04-11T05:37:18.795Z,81.08
2023-04-11T05:39:45.613Z,81.05
2023-04-11T05:42:12.502Z,80.67
2023-04-11T05:44:40.448Z,80.74
2023-04-11T05:47:07.350Z,80.79
2023-04-11T05:49:34.084Z,80.67
2023-04-11T05:52:01.254Z,79.62
2023-04-11T05:54:33.909Z,79.81
2023-04-11T05:57:02.321Z,79.19
2023-04-11T05:59:32.772Z,78.29
2023-04-11T06:02:00.050Z,77.59
2023-04-11T06:04:27.600Z,77.19
2023-04-11T06:06:56.372Z,77.60
2023-04-11T06:09:23.408Z,77.37
2023-04-11T06:11:50.226Z,75.54
2023-04-11T06:14:17.172Z,75.28
2023-04-11T06:16:44.016Z,75.32
2023-04-11T06:19:10.945Z,74.57
2023-04-11T06:21:38.230Z,74.96
2023-04-11T06:24:08.782Z,75.73
2023-04-11T06:26:35.823Z,76.92
2023-04-11T06:29:06.494Z,76.16
2023-04-11T06:31:36.743Z,75.89
2023-04-11T06:34:03.782Z,74.93
2023-04-11T06:36:31.623Z,73.58
2023-04-11T06:38:58.550Z,73.76
2023-04-11T06:41:25.561Z,74.62
2023-04-11T06:43:52.434Z,75.05
2023-04-11T06:46:19.751Z,75.52
2023-04-11T06:48:46.951Z,75.38
2023-04-11T06:51:13.889Z,75.46
2023-04-11T06:53:40.943Z,76.33
2023-04-11T06:56:08.413Z,76.41
2023-04-11T06:58:35.448Z,76.91
2023-04-11T07:01:02.381Z,77.31
2023-04-11T07:03:31.112Z,76.23
2023-04-11T07:05:59.732Z,77.24
2023-04-11T07:08:26.587Z,78.40
2023-04-11T07:10:53.424Z,78.24
2023-04-11T07:13:21.560Z,79.04
2023-04-11T07:15:48.509Z,79.55
2023-04-11T07:18:15.528Z,80.20
2023-04-11T07:20:42.521Z,80.06
2023-04-11T07:23:09.474Z,80.12
2023-04-11T07:25:37.156Z,80.21
2023-04-11T07:28:08.579Z,80.59
2023-04-11T07:30:38.525Z,80.16
2023-04-11T07:33:05.818Z,81.56
2023-04-11T07:35:34.754Z,81.55
2023-04-11T07:38:04.282Z,81.35
2023-04-11T07:40:32.243Z,81.62
2023-04-11T07:42:59.154Z,81.32
2023-04-11T07:45:26.358Z,80.31
2023-04-11T07:47:53.376Z,79.94
2023-04-11T07:50:20.587Z,79.69
2023-04-11T07:52:47.805Z,80.54
2023-04-11T07:55:14.896Z,79.94
2023-04-11T07:57:41.898Z,80.08
2023-04-11T08:00:12.757Z,80.02
2023-04-11T08:02:39.812Z,81.21
2023-04-11T08:05:10.235Z,81.86
2023-04-11T08:07:37.212Z,81.49
2023-04-11T08:10:05.708Z,81.29
2023-04-11T08:12:32.446Z,80.93
2023-04-11T08:14:59.411Z,79.95
2023-04-11T08:17:29.299Z,79.68
2023-04-11T08:19:57.843Z,79.61
2023-04-11T08:22:24.847Z,80.22
2023-04-11T08:24:52.598Z,80.17
2023-04-11T08:27:19.592Z,80.33
2023-04-11T08:29:46.626Z,80.90
2023-04-11T08:32:13.530Z,79.27
2023-04-11T08:34:40.571Z,79.11
2023-04-11T08:37:07.744Z,78.99
2023-04-11T08:39:34.571Z,79.55
2023-04-11T08:42:01.503Z,79.10
2023-04-11T08:44:28.740Z,79.17
2023-04-11T08:46:56.569Z,77.71
2023-04-11T08:49:23.430Z,75.36
2023-04-11T08:51:54.548Z,73.42
2023-04-11T08:54:21.593Z,71.21
2023-04-11T08:56:58.405Z,72.22
2023-04-11T08:59:25.431Z,71.33
2023-04-11T09:01:52.558Z,70.29
2023-04-11T09:04:19.708Z,69.59
2023-04-11T09:07:00.789Z,73.63
2023-04-11T09:09:31.020Z,74.33
2023-04-11T09:11:58.076Z,74.27
2023-04-11T09:14:27.054Z,73.86
2023-04-11T09:16:55.646Z,74.06
2023-04-11T09:19:26.985Z,72.07
2023-04-11T09:21:57.069Z,72.96
2023-04-11T09:24:25.817Z,74.89
2023-04-11T09:27:13.621Z,74.48
2023-04-11T09:29:48.100Z,73.79
2023-04-11T09:32:34.872Z,72.45
2023-04-11T09:35:25.322Z,70.82
2023-04-11T09:37:56.991Z,70.96
2023-04-11T09:40:26.572Z,71.12
2023-04-11T09:42:58.947Z,69.73
2023-04-11T09:45:26.912Z,67.16
2023-04-11T09:47:58.759Z,65.77
2023-04-11T09:50:27.353Z,67.20
2023-04-11T09:52:58.865Z,66.97
2023-04-11T09:55:26.487Z,64.96
2023-04-11T09:57:54.895Z,66.44
2023-04-11T10:00:24.524Z,66.81
2023-04-11T10:02:53.797Z,62.29
2023-04-11T10:05:28.225Z,56.98
2023-04-11T10:08:04.432Z,52.67
2023-04-11T10:10:32.388Z,56.08
2023-04-11T10:12:59.780Z,61.69
2023-04-11T10:15:26.644Z,66.34
2023-04-11T10:18:13.099Z,67.16
2023-04-11T10:20:40.925Z,68.34
2023-04-11T10:23:07.942Z,70.12
2023-04-11T10:25:50.340Z,72.91
2023-04-11T10:28:38.527Z,73.47
2023-04-11T10:31:07.820Z,74.57
2023-04-11T10:33:37.353Z,75.09
2023-04-11T10:36:11.885Z,73.90
2023-04-11T10:38:47.738Z,72.65
2023-04-11T10:41:15.307Z,69.19
2023-04-11T10:43:42.524Z,66.55
2023-04-11T10:46:23.808Z,67.39
2023-04-11T10:49:33.116Z,65.76
2023-04-11T10:52:37.761Z,68.11
2023-04-11T10:55:18.411Z,66.70
2023-04-11T10:58:05.991Z,65.76
2023-04-11T11:00:51.693Z,66.48
2023-04-11T11:03:23.822Z,60.93
2023-04-11T11:06:02.552Z,58.83
2023-04-11T11:08:38.322Z,54.93
2023-04-11T11:11:07.089Z,55.16
2023-04-11T11:13:53.642Z,55.21
2023-04-11T11:16:22.897Z,54.51
2023-04-11T11:18:52.121Z,54.69
2023-04-11T11:21:27.919Z,55.36
2023-04-11T11:23:57.798Z,57.06
2023-04-11T11:26:37.971Z,58.74
2023-04-11T11:29:06.025Z,60.55
2023-04-11T11:31:42.045Z,62.46
2023-04-11T11:34:23.000Z,63.57
2023-04-11T11:36:51.479Z,64.80
2023-04-11T11:42:06.080Z,68.68
2023-04-11T11:44:33.037Z,67.30
2023-04-11T11:47:15.410Z,64.72
2023-04-11T11:49:49.817Z,63.34
2023-04-11T11:52:35.281Z,61.24
2023-04-11T11:55:26.791Z,62.97
2023-04-11T11:57:53.876Z,64.05
2023-04-11T12:00:25.419Z,64.00
2023-04-11T12:02:54.312Z,64.82
2023-04-11T12:05:24.115Z,63.95
2023-04-11T12:07:58.828Z,64.18
2023-04-11T12:10:28.713Z,66.81
2023-04-11T12:12:55.538Z,67.22
2023-04-11T12:15:24.425Z,65.99
2023-04-11T12:17:55.344Z,64.43
2023-04-11T12:20:26.991Z,65.85
2023-04-11T12:22:55.249Z,65.89
2023-04-11T12:25:23.244Z,64.33
2023-04-11T12:27:50.201Z,64.40
2023-04-11T12:30:17.139Z,61.24
2023-04-11T12:32:45.143Z,59.13
2023-04-11T12:35:13.095Z,56.64
2023-04-11T12:37:40.661Z,55.87
2023-04-11T12:40:11.158Z,56.03
2023-04-11T12:42:55.284Z,54.93
2023-04-11T12:45:23.641Z,56.46
2023-04-11T12:47:50.595Z,55.12
2023-04-11T12:50:17.939Z,53.22
2023-04-11T12:52:45.316Z,54.38
2023-04-11T12:55:13.768Z,54.71
2023-04-11T12:57:41.723Z,52.55
2023-04-11T13:00:10.787Z,54.25
2023-04-11T13:02:42.910Z,53.68
2023-04-11T13:05:14.670Z,53.57
2023-04-11T13:07:42.460Z,53.25
2023-04-11T13:10:10.143Z,57.16
2023-04-11T13:12:41.733Z,61.87
2023-04-11T13:15:12.197Z,65.62
2023-04-11T13:17:39.784Z,67.84
2023-04-11T13:20:10.726Z,67.99
2023-04-11T13:22:39.017Z,67.88
2023-04-11T13:25:07.182Z,64.72
2023-04-11T13:27:34.838Z,64.58
2023-04-11T13:30:02.329Z,65.77
2023-04-11T13:32:29.486Z,67.00
2023-04-11T13:34:56.999Z,66.29
2023-04-11T13:37:24.668Z,68.40
2023-04-11T13:39:51.467Z,67.92
2023-04-11T13:42:18.438Z,68.84
2023-04-11T13:44:45.608Z,68.29
2023-04-11T13:47:12.605Z,68.78
2023-04-11T13:49:39.839Z,68.75
2023-04-11T13:52:08.514Z,68.45
2023-04-11T13:54:35.826Z,67.43
2023-04-11T13:57:06.992Z,67.39
2023-04-11T13:59:34.546Z,66.41
2023-04-11T14:02:02.850Z,67.03
2023-04-11T14:04:30.069Z,66.73
2023-04-11T14:06:57.466Z,67.65
2023-04-11T14:09:24.478Z,67.19
2023-04-11T14:11:51.655Z,67.39
2023-04-11T14:14:18.621Z,67.53
2023-04-11T14:16:45.763Z,67.44
2023-04-11T14:19:12.818Z,67.62
2023-04-11T14:21:40.444Z,67.90
2023-04-11T14:24:07.531Z,66.31
2023-04-11T14:26:34.682Z,63.92
2023-04-11T14:29:01.572Z,61.08
2023-04-11T14:31:28.689Z,60.66
2023-04-11T14:33:56.007Z,61.25
2023-04-11T14:36:23.165Z,61.22
2023-04-11T14:38:49.966Z,60.81
2023-04-11T14:41:17.952Z,60.91
2023-04-11T14:43:44.939Z,61.44
2023-04-11T14:46:12.492Z,61.50
2023-04-11T14:48:39.494Z,62.89
2023-04-11T14:51:07.359Z,63.57
2023-04-11T14:53:34.318Z,64.40
2023-04-11T14:56:06.050Z,64.28
2023-04-11T14:58:33.946Z,63.88
2023-04-11T15:01:00.947Z,63.85
2023-04-11T15:03:28.114Z,63.77
2023-04-11T15:05:55.137Z,63.81
2023-04-11T15:08:21.987Z,63.77
2023-04-11T15:10:54.565Z,64.64
2023-04-11T15:13:22.602Z,63.69
2023-04-11T15:15:49.752Z,62.49
2023-04-11T15:18:21.998Z,60.68
2023-04-11T15:20:50.064Z,60.80
2023-04-11T15:23:19.487Z,60.57
2023-04-11T15:26:00.016Z,61.86
2023-04-11T15:28:31.066Z,62.91
2023-04-11T15:30:59.407Z,63.70
2023-04-11T15:33:27.913Z,64.82
2023-04-11T15:35:55.792Z,64.96
2023-04-11T15:38:24.202Z,63.69
2023-04-11T15:40:52.698Z,61.97
2023-04-11T15:43:19.635Z,61.04
2023-04-11T15:45:46.833Z,61.04
2023-04-11T15:48:13.960Z,62.70
2023-04-11T15:50:45.322Z,65.75
2023-04-11T15:53:12.689Z,66.00
2023-04-11T15:55:41.237Z,63.68
2023-04-11T15:58:08.732Z,60.99
2023-04-11T16:00:36.777Z,59.43
2023-04-11T16:03:05.057Z,60.02
2023-04-11T16:05:32.847Z,60.36
2023-04-11T16:07:59.768Z,61.42
2023-04-11T16:10:27.091Z,61.14
2023-04-11T16:12:53.955Z,60.84
2023-04-11T16:15:20.948Z,61.65
2023-04-11T16:17:48.128Z,62.31
2023-04-11T16:20:24.302Z,63.96
2023-04-11T16:22:51.454Z,65.96
2023-04-11T16:25:21.536Z,65.96
2023-04-11T16:27:48.820Z,65.87
2023-04-11T16:30:18.690Z,64.96
2023-04-11T16:32:45.671Z,65.37
2023-04-11T16:35:12.603Z,66.33
2023-04-11T16:37:39.499Z,66.93
2023-04-11T16:40:11.555Z,66.67
2023-04-11T16:42:39.732Z,67.27
2023-04-11T16:45:07.497Z,66.09
2023-04-11T16:47:34.706Z,65.49
2023-04-11T16:50:02.416Z,65.52
2023-04-11T16:52:29.620Z,66.08
2023-04-11T16:54:56.555Z,66.51
2023-04-11T16:57:24.610Z,65.41
2023-04-11T16:59:51.922Z,65.73
2023-04-11T17:02:20.910Z,65.27
2023-04-11T17:04:48.574Z,65.53
2023-04-11T17:07:16.328Z,64.80
2023-04-11T17:09:43.162Z,65.36
2023-04-11T17:12:09.897Z,64.86
2023-04-11T17:14:36.821Z,64.04
2023-04-11T17:17:04.327Z,64.68
2023-04-11T17:19:31.756Z,64.65
2023-04-11T17:21:58.647Z,64.56
2023-04-11T17:24:25.605Z,65.73
2023-04-11T17:26:52.755Z,65.01
2023-04-11T17:29:20.564Z,65.18
2023-04-11T17:31:49.302Z,64.95
2023-04-11T17:34:16.334Z,64.74
2023-04-11T17:36:43.347Z,65.37
2023-04-11T17:39:18.226Z,65.89
2023-04-11T17:41:45.884Z,67.22
2023-04-11T17:44:13.482Z,67.17
2023-04-11T17:46:40.526Z,67.08
2023-04-11T17:49:07.629Z,68.27
2023-04-11T17:51:34.688Z,68.77
2023-04-11T17:54:01.650Z,68.47
2023-04-11T17:56:29.033Z,69.40
2023-04-11T17:58:56.612Z,68.90
2023-04-11T18:01:25.023Z,69.73
2023-04-11T18:03:52.090Z,69.37
2023-04-11T18:06:19.513Z,69.98
2023-04-11T18:08:51.408Z,69.54
2023-04-11T18:11:19.790Z,70.58
2023-04-11T18:13:49.852Z,70.05
2023-04-11T18:16:17.566Z,68.02
2023-04-11T18:18:44.917Z,68.85
2023-04-11T18:21:11.828Z,69.00
2023-04-11T18:23:39.247Z,69.92
2023-04-11T18:26:06.449Z,69.80
2023-04-11T18:28:33.779Z,70.03
2023-04-11T18:31:01.882Z,71.12
2023-04-11T18:33:29.383Z,71.13
2023-04-11T18:35:56.502Z,70.86
2023-04-11T18:38:23.509Z,72.19
2023-04-11T18:40:54.905Z,72.60
2023-04-11T18:43:22.584Z,72.36
2023-04-11T18:45:50.734Z,73.36
2023-04-11T18:48:17.921Z,73.91
2023-04-11T18:50:48.663Z,74.36
2023-04-11T18:53:15.682Z,74.15
2023-04-11T18:55:42.664Z,74.60
2023-04-11T18:58:10.951Z,75.74
2023-04-11T19:00:40.520Z,76.94
2023-04-11T19:03:15.453Z,77.78
2023-04-11T19:05:44.241Z,77.88
2023-04-11T19:08:11.867Z,78.05
2023-04-11T19:10:38.836Z,77.99
2023-04-11T19:13:06.601Z,78.17
2023-04-11T19:15:33.635Z,79.10
2023-04-11T19:18:00.982Z,79.91
2023-04-11T19:20:28.472Z,80.72
2023-04-11T19:22:55.373Z,81.82
2023-04-11T19:25:22.290Z,82.10
2023-04-11T19:27:50.040Z,83.02
2023-04-11T19:30:17.111Z,82.82
2023-04-11T19:32:46.253Z,83.15
2023-04-11T19:35:14.413Z,84.53
2023-04-11T19:37:41.506Z,84.77
2023-04-11T19:40:13.989Z,84.91
2023-04-11T19:42:41.997Z,84.30
2023-04-11T19:45:15.307Z,85.17
2023-04-11T19:47:43.423Z,84.97
2023-04-11T19:50:13.491Z,85.99
2023-04-11T19:52:41.777Z,85.61
2023-04-11T19:55:09.603Z,85.05
2023-04-11T19:57:39.086Z,86.64
2023-04-11T20:00:17.521Z,86.98
2023-04-11T20:02:47.169Z,87.16
2023-04-11T20:05:19.081Z,87.38
2023-04-11T20:07:46.994Z,87.60
2023-04-11T20:10:16.179Z,87.74
2023-04-11T20:12:43.222Z,87.96
2023-04-11T20:15:10.931Z,87.63
2023-04-11T20:17:37.964Z,87.32
2023-04-11T20:20:09.277Z,87.98
2023-04-11T20:22:38.638Z,87.87
2023-04-11T20:25:08.185Z,88.67
2023-04-11T20:27:35.194Z,88.15
2023-04-11T20:30:07.110Z,87.49
2023-04-11T20:32:34.064Z,86.31
2023-04-11T20:35:02.028Z,87.83
2023-04-11T20:37:31.115Z,88.48
2023-04-11T20:39:58.819Z,88.20
2023-04-11T20:42:26.606Z,87.36
2023-04-11T20:44:58.090Z,87.80
2023-04-11T20:47:25.084Z,88.66
2023-04-11T20:49:55.828Z,90.09
2023-04-11T20:52:23.109Z,89.84
2023-04-11T20:54:50.026Z,89.41
2023-04-11T20:57:16.992Z,88.81
2023-04-11T20:59:43.880Z,89.06
2023-04-11T21:02:10.713Z,88.69
2023-04-11T21:04:37.997Z,87.97
2023-04-11T21:07:05.096Z,87.72
2023-04-11T21:09:32.004Z,88.34
2023-04-11T21:11:58.974Z,88.30
2023-04-11T21:14:25.876Z,88.88
2023-04-11T21:16:52.672Z,88.76
2023-04-11T21:19:19.475Z,88.95
2023-04-11T21:21:46.661Z,87.83
2023-04-11T21:24:13.695Z,88.81
2023-04-11T21:26:41.643Z,88.11
2023-04-11T21:29:10.431Z,87.71
2023-04-11T21:31:39.271Z,88.29
2023-04-11T21:34:06.293Z,89.02
2023-04-11T21:36:33.516Z,87.95
2023-04-11T21:39:00.644Z,88.11
2023-04-11T21:41:29.300Z,87.84
2023-04-11T21:43:56.672Z,88.10
2023-04-11T21:46:23.984Z,87.84
2023-04-11T21:48:51.504Z,87.95
2023-04-11T21:51:18.737Z,87.11
2023-04-11T21:53:45.740Z,87.70
2023-04-11T21:56:12.746Z,87.44
2023-04-11T21:58:39.720Z,88.36
2023-04-11T22:01:11.488Z,87.33
2023-04-11T22:03:42.517Z,87.17
2023-04-11T22:06:10.662Z,86.70
2023-04-11T22:08:41.228Z,88.05
2023-04-11T22:11:14.591Z,87.64
2023-04-11T22:13:46.564Z,88.39
2023-04-11T22:16:14.453Z,88.18
2023-04-11T22:18:49.173Z,88.69
2023-04-11T22:21:20.350Z,88.53
2023-04-11T22:23:55.725Z,88.40
2023-04-11T22:26:29.843Z,87.35
2023-04-11T22:29:02.043Z,88.81
2023-04-11T22:31:39.042Z,87.45
2023-04-11T22:34:08.591Z,88.79
2023-04-11T22:36:38.154Z,88.08
2023-04-11T22:39:06.187Z,87.43
2023-04-11T22:41:38.873Z,86.70
2023-04-11T22:44:06.745Z,87.60
2023-04-11T22:46:39.730Z,88.04
2023-04-11T22:49:07.120Z,87.72
2023-04-11T22:51:33.963Z,87.56
2023-04-11T22:54:01.391Z,88.99
2023-04-11T22:56:28.658Z,89.33
2023-04-11T22:58:55.721Z,88.21
2023-04-11T23:01:22.677Z,87.63
2023-04-11T23:03:49.957Z,89.85
2023-04-11T23:06:17.508Z,88.94
2023-04-11T23:08:44.554Z,88.35
2023-04-11T23:11:11.652Z,88.40
2023-04-11T23:13:38.629Z,88.57
2023-04-11T23:16:06.338Z,87.95
2023-04-11T23:18:33.326Z,87.88
2023-04-11T23:21:00.129Z,89.17
2023-04-11T23:23:28.017Z,90.77
2023-04-11T23:25:56.354Z,89.90
2023-04-11T23:28:24.499Z,89.04
2023-04-11T23:30:51.741Z,88.23
2023-04-11T23:33:18.672Z,88.45
2023-04-11T23:35:45.564Z,89.35
2023-04-11T23:38:14.942Z,89.83
2023-04-11T23:40:41.812Z,89.48
2023-04-11T23:43:08.863Z,90.11
2023-04-11T23:45:35.965Z,91.58
2023-04-11T23:48:02.934Z,90.83
2023-04-11T23:50:29.979Z,90.56
2023-04-11T23:52:57.347Z,91.42
2023-04-11T23:55:24.450Z,89.56
2023-04-11T23:57:51.583Z,90.65
